| time (UTC) | temp C | wind direction | speed KPH | gust KPH | rain 1hr cm | rain 24hr cm | rain mn cm | humidity % | barometer mb |
| 20260905194824 | 15 | 5 | 0.0 | 1.6 | 0.00 | 0.00 | 0.00 | 43 | 1021.6 |
| 20260905193824 | 15 | 5 | 0.0 | 0.0 | 0.00 | 0.00 | 0.00 | 43 | 1021.5 |
| 20260905192824 | 15 | 4 | 0.0 | 0.0 | 0.00 | 0.00 | 0.00 | 43 | 1021.5 |
| 20260905191324 | 16 | 4 | 0.0 | 0.0 | 0.00 | 0.00 | 0.00 | 42 | 1021.5 |
| 20260905190825 | 16 | 5 | 0.0 | 0.0 | 0.00 | 0.00 | 0.00 | 41 | 1021.4 |
| 20260905190324 | 16 | 5 | 4.8 | 4.8 | 0.00 | 0.00 | 0.00 | 41 | 1021.3 |
| 20260905185824 | 16 | 4 | 4.8 | 6.4 | 0.00 | 0.00 | 0.00 | 41 | 1021.2 |
| 20260905185324 | 17 | 3 | 4.8 | 4.8 | 0.00 | 0.00 | 0.00 | 41 | 1021.0 |
| 20260905184324 | 17 | 4 | 8.0 | 9.7 | 0.00 | 0.00 | 0.00 | 41 | 1020.7 |
| 20260905183824 | 17 | 4 | 8.0 | 12.9 | 0.00 | 0.00 | 0.00 | 41 | 1020.7 |
| 20260905181824 | 17 | 63 | 12.9 | 16.1 | 0.00 | 0.00 | 0.00 | 40 | 1020.3 |
| 20260905181324 | 18 | 350 | 11.3 | 12.9 | 0.00 | 0.00 | 0.00 | 41 | 1020.3 |
| 20260905180824 | 18 | 310 | 8.0 | 8.0 | 0.00 | 0.00 | 0.00 | 41 | 1020.2 |
| 20260905180324 | 18 | 310 | 11.3 | 11.3 | 0.00 | 0.00 | 0.00 | 40 | 1020.1 |
| 20260905175824 | 18 | 309 | 9.7 | 11.3 | 0.00 | 0.00 | 0.00 | 40 | 1020.0 |
| 20260905175324 | 18 | 315 | 9.7 | 16.1 | 0.00 | 0.00 | 0.00 | 40 | 1020.0 |
| 20260905174824 | 18 | 304 | 14.5 | 17.7 | 0.00 | 0.00 | 0.00 | 40 | 1019.9 |
| 20260905174324 | 18 | 304 | 11.3 | 17.7 | 0.00 | 0.00 | 0.00 | 39 | 1019.8 |
| 20260905173824 | 18 | 321 | 11.3 | 16.1 | 0.00 | 0.00 | 0.00 | 39 | 1019.7 |
| 20260905173324 | 19 | 308 | 16.1 | 19.3 | 0.00 | 0.00 | 0.00 | 39 | 1019.6 |
| 20260905170824 | 20 | 299 | 19.3 | 24.1 | 0.00 | 0.00 | 0.00 | 37 | 1019.4 |
| 20260905170324 | 20 | 296 | 24.1 | 29.0 | 0.00 | 0.00 | 0.00 | 37 | 1019.3 |
| 20260905165824 | 20 | 298 | 16.1 | 20.9 | 0.00 | 0.00 | 0.00 | 36 | 1019.3 |
| 20260905165326 | 21 | 299 | 20.9 | 25.7 | 0.00 | 0.00 | 0.00 | 36 | 1019.2 |
| 20260905164324 | 21 | 282 | 14.5 | 20.9 | 0.00 | 0.00 | 0.00 | 35 | 1019.2 |
| 20260905163824 | 21 | 288 | 19.3 | 20.9 | 0.00 | 0.00 | 0.00 | 35 | 1019.1 |
| 20260905162824 | 21 | 286 | 19.3 | 24.1 | 0.00 | 0.00 | 0.00 | 34 | 1019.1 |
| 20260905162324 | 21 | 295 | 20.9 | 32.2 | 0.00 | 0.00 | 0.00 | 34 | 1019.1 |
| 20260905160824 | 20 | 299 | 12.9 | 17.7 | 0.00 | 0.00 | 0.00 | 36 | 1019.0 |
| 20260905160324 | 21 | 302 | 16.1 | 25.7 | 0.00 | 0.00 | 0.00 | 36 | 1019.0 |
| 20260905155824 | 21 | 296 | 14.5 | 27.4 | 0.00 | 0.00 | 0.00 | 36 | 1019.0 |
| 20260905155325 | 21 | 303 | 12.9 | 16.1 | 0.00 | 0.00 | 0.00 | 36 | 1019.0 |
| 20260905154824 | 21 | 293 | 20.9 | 24.1 | 0.00 | 0.00 | 0.00 | 35 | 1018.9 |
| 20260905154324 | 21 | 289 | 19.3 | 22.5 | 0.00 | 0.00 | 0.00 | 35 | 1018.9 |
| 20260905153324 | 21 | 295 | 20.9 | 24.1 | 0.00 | 0.00 | 0.00 | 34 | 1018.9 |
| 20260905152824 | 21 | 292 | 22.5 | 29.0 | 0.00 | 0.00 | 0.00 | 34 | 1018.9 |
| 20260905152325 | 21 | 314 | 25.7 | 30.6 | 0.00 | 0.00 | 0.00 | 34 | 1018.8 |
| 20260905151825 | 21 | 310 | 30.6 | 35.4 | 0.00 | 0.00 | 0.00 | 34 | 1018.8 |
| 20260905150824 | 21 | 300 | 19.3 | 30.6 | 0.00 | 0.00 | 0.00 | 35 | 1018.8 |
| 20260905150324 | 20 | 296 | 25.7 | 30.6 | 0.00 | 0.00 | 0.00 | 34 | 1018.8 |
| 20260905145824 | 20 | 304 | 17.7 | 27.4 | 0.00 | 0.00 | 0.00 | 34 | 1018.7 |
| 20260905145324 | 21 | 304 | 29.0 | 38.6 | 0.00 | 0.00 | 0.00 | 33 | 1018.8 |
| 20260905144824 | 21 | 289 | 22.5 | 35.4 | 0.00 | 0.00 | 0.00 | 33 | 1018.8 |
| 20260905144324 | 21 | 287 | 17.7 | 20.9 | 0.00 | 0.00 | 0.00 | 32 | 1018.8 |
| 20260905143824 | 21 | 288 | 24.1 | 29.0 | 0.00 | 0.00 | 0.00 | 32 | 1018.8 |
| 20260905143324 | 21 | 312 | 17.7 | 24.1 | 0.00 | 0.00 | 0.00 | 33 | 1018.9 |
| 20260905142824 | 21 | 294 | 16.1 | 22.5 | 0.00 | 0.00 | 0.00 | 33 | 1018.9 |
| 20260905142324 | 21 | 300 | 16.1 | 22.5 | 0.00 | 0.00 | 0.00 | 34 | 1019.0 |
| 20260905141324 | 21 | 301 | 20.9 | 25.7 | 0.00 | 0.00 | 0.00 | 33 | 1019.0 |
| 20260905140324 | 22 | 299 | 17.7 | 20.9 | 0.00 | 0.00 | 0.00 | 32 | 1019.1 |
| 20260905135324 | 22 | 316 | 19.3 | 20.9 | 0.00 | 0.00 | 0.00 | 32 | 1019.0 |
| 20260905134824 | 22 | 294 | 14.5 | 30.6 | 0.00 | 0.00 | 0.00 | 32 | 1019.0 |
| 20260905134324 | 21 | 314 | 24.1 | 29.0 | 0.00 | 0.00 | 0.00 | 32 | 1019.1 |
| 20260905133324 | 21 | 302 | 24.1 | 30.6 | 0.00 | 0.00 | 0.00 | 33 | 1019.1 |
| 20260905130324 | 22 | 303 | 24.1 | 29.0 | 0.00 | 0.00 | 0.00 | 32 | 1019.2 |
| 20260905125824 | 22 | 323 | 22.5 | 27.4 | 0.00 | 0.00 | 0.00 | 33 | 1019.2 |
| 20260905125324 | 22 | 317 | 22.5 | 27.4 | 0.00 | 0.00 | 0.00 | 32 | 1019.1 |
| 20260905124824 | 22 | 303 | 20.9 | 27.4 | 0.00 | 0.00 | 0.00 | 33 | 1019.1 |
| 20260905124324 | 22 | 329 | 29.0 | 33.8 | 0.00 | 0.00 | 0.00 | 33 | 1019.0 |
| 20260905123824 | 22 | 319 | 22.5 | 27.4 | 0.00 | 0.00 | 0.00 | 32 | 1019.0 |
| 20260905123324 | 22 | 309 | 19.3 | 20.9 | 0.00 | 0.00 | 0.00 | 33 | 1019.1 |
| 20260905122324 | 22 | 297 | 17.7 | 25.7 | 0.00 | 0.00 | 0.00 | 33 | 1019.2 |
| 20260905121824 | 21 | 310 | 24.1 | 33.8 | 0.00 | 0.00 | 0.00 | 33 | 1019.2 |
| 20260905121324 | 21 | 307 | 22.5 | 29.0 | 0.00 | 0.00 | 0.00 | 34 | 1019.2 |
| 20260905120824 | 21 | 327 | 25.7 | 30.6 | 0.00 | 0.00 | 0.00 | 34 | 1019.3 |
| 20260905120324 | 21 | 313 | 19.3 | 32.2 | 0.00 | 0.00 | 0.00 | 33 | 1019.3 |
| 20260905115824 | 23 | 312 | 24.1 | 27.4 | 0.00 | 0.00 | 0.00 | 34 | 1019.3 |
| 20260905115324 | 23 | 305 | 25.7 | 29.0 | 0.00 | 0.00 | 0.00 | 32 | 1019.2 |
| 20260905114824 | 23 | 277 | 20.9 | 27.4 | 0.00 | 0.00 | 0.00 | 32 | 1019.2 |
| 20260905114324 | 23 | 299 | 22.5 | 27.4 | 0.00 | 0.00 | 0.00 | 32 | 1019.2 |
| 20260905113824 | 22 | 300 | 16.1 | 24.1 | 0.00 | 0.00 | 0.00 | 33 | 1019.2 |
| 20260905113324 | 22 | 295 | 19.3 | 22.5 | 0.00 | 0.00 | 0.00 | 33 | 1019.3 |
| 20260905112824 | 22 | 271 | 19.3 | 24.1 | 0.00 | 0.00 | 0.00 | 33 | 1019.3 |
| 20260905112324 | 22 | 279 | 20.9 | 24.1 | 0.00 | 0.00 | 0.00 | 33 | 1019.3 |
| 20260905111325 | 22 | 314 | 25.7 | 29.0 | 0.00 | 0.00 | 0.00 | 35 | 1019.3 |
| 20260905110824 | 23 | 290 | 17.7 | 25.7 | 0.00 | 0.00 | 0.00 | 35 | 1019.3 |
| 20260905110324 | 23 | 294 | 19.3 | 30.6 | 0.00 | 0.00 | 0.00 | 35 | 1019.2 |
| 20260905105824 | 22 | 314 | 20.9 | 24.1 | 0.00 | 0.00 | 0.00 | 36 | 1019.2 |
| 20260905105324 | 22 | 314 | 25.7 | 27.4 | 0.00 | 0.00 | 0.00 | 36 | 1019.2 |
| 20260905103824 | 21 | 321 | 25.7 | 30.6 | 0.00 | 0.00 | 0.00 | 37 | 1019.2 |
| 20260905102825 | 22 | 327 | 24.1 | 25.7 | 0.00 | 0.00 | 0.00 | 38 | 1019.2 |
| 20260905102325 | 22 | 315 | 20.9 | 25.7 | 0.00 | 0.00 | 0.00 | 38 | 1019.1 |
| 20260905101824 | 22 | 323 | 24.1 | 25.7 | 0.00 | 0.00 | 0.00 | 38 | 1019.2 |
| 20260905101324 | 22 | 305 | 19.3 | 24.1 | 0.00 | 0.00 | 0.00 | 38 | 1019.3 |
| 20260905100324 | 21 | 311 | 19.3 | 24.1 | 0.00 | 0.00 | 0.00 | 40 | 1019.4 |
| 20260905095824 | 21 | 310 | 20.9 | 24.1 | 0.00 | 0.00 | 0.00 | 40 | 1019.4 |
| 20260905095324 | 21 | 275 | 17.7 | 22.5 | 0.00 | 0.00 | 0.00 | 40 | 1019.5 |
| 20260905093824 | 21 | 304 | 20.9 | 25.7 | 0.00 | 0.00 | 0.00 | 42 | 1019.5 |
| 20260905093324 | 21 | 303 | 20.9 | 22.5 | 0.00 | 0.00 | 0.00 | 42 | 1019.5 |
| 20260905092824 | 20 | 290 | 19.3 | 20.9 | 0.00 | 0.00 | 0.00 | 43 | 1019.6 |
| 20260905091324 | 20 | 307 | 17.7 | 20.9 | 0.00 | 0.00 | 0.00 | 47 | 1019.6 |
| 20260905085824 | 19 | 323 | 16.1 | 24.1 | 0.00 | 0.00 | 0.00 | 49 | 1019.6 |
| 20260905085324 | 19 | 312 | 14.5 | 17.7 | 0.00 | 0.00 | 0.00 | 52 | 1019.6 |
| 20260905084824 | 18 | 291 | 16.1 | 19.3 | 0.00 | 0.00 | 0.00 | 53 | 1019.5 |
| 20260905083824 | 16 | 288 | 14.5 | 19.3 | 0.00 | 0.00 | 0.00 | 57 | 1019.5 |
| 20260905083324 | 16 | 290 | 16.1 | 20.9 | 0.00 | 0.00 | 0.00 | 59 | 1019.5 |
| 20260905082824 | 16 | 305 | 12.9 | 19.3 | 0.00 | 0.00 | 0.00 | 60 | 1019.6 |
| 20260905081325 | 16 | 298 | 16.1 | 19.3 | 0.00 | 0.00 | 0.00 | 61 | 1019.5 |
| 20260905080824 | 16 | 301 | 12.9 | 17.7 | 0.00 | 0.00 | 0.00 | 62 | 1019.4 |
| 20260905080324 | 16 | 307 | 11.3 | 14.5 | 0.00 | 0.00 | 0.00 | 62 | 1019.2 |
| 20260905075824 | 15 | 310 | 11.3 | 14.5 | 0.00 | 0.00 | 0.00 | 62 | 1019.2 |
| 20260905074824 | 15 | 286 | 8.0 | 11.3 | 0.00 | 0.00 | 0.00 | 64 | 1019.0 |
| 20260905073325 | 14 | 323 | 9.7 | 12.9 | 0.00 | 0.00 | 0.00 | 65 | 1018.7 |
| 20260905072324 | 13 | 322 | 12.9 | 14.5 | 0.00 | 0.00 | 0.00 | 66 | 1018.4 |
| 20260905071824 | 13 | 328 | 8.0 | 11.3 | 0.00 | 0.00 | 0.00 | 66 | 1018.2 |
| 20260905071324 | 13 | 327 | 9.7 | 11.3 | 0.00 | 0.00 | 0.00 | 66 | 1018.2 |
| 20260905070324 | 13 | 305 | 11.3 | 16.1 | 0.00 | 0.00 | 0.00 | 66 | 1018.4 |
| 20260905065824 | 13 | 301 | 9.7 | 12.9 | 0.00 | 0.00 | 0.00 | 66 | 1018.6 |
| 20260905065324 | 13 | 296 | 9.7 | 12.9 | 0.00 | 0.00 | 0.00 | 67 | 1018.4 |
| 20260905063824 | 12 | 280 | 12.9 | 14.5 | 0.00 | 0.00 | 0.00 | 67 | 1018.5 |
| 20260905063324 | 12 | 282 | 9.7 | 14.5 | 0.00 | 0.00 | 0.00 | 67 | 1018.7 |
| 20260905062824 | 12 | 253 | 6.4 | 12.9 | 0.00 | 0.00 | 0.00 | 68 | 1018.6 |
| 20260905062324 | 12 | 247 | 12.9 | 16.1 | 0.00 | 0.00 | 0.00 | 71 | 1018.2 |
| 20260905061324 | 12 | 271 | 11.3 | 17.7 | 0.00 | 0.00 | 0.00 | 70 | 1018.2 |
| 20260905060824 | 13 | 236 | 11.3 | 16.1 | 0.00 | 0.00 | 0.00 | 70 | 1017.9 |
| 20260905055824 | 13 | 280 | 8.0 | 11.3 | 0.00 | 0.00 | 0.00 | 64 | 1018.5 |
| 20260905055324 | 13 | 299 | 6.4 | 11.3 | 0.00 | 0.00 | 0.00 | 64 | 1018.6 |
| 20260905054824 | 13 | 319 | 11.3 | 12.9 | 0.00 | 0.00 | 0.00 | 64 | 1018.6 |
| 20260905054324 | 13 | 319 | 11.3 | 12.9 | 0.00 | 0.00 | 0.00 | 64 | 1018.6 |
| 20260905053824 | 13 | 318 | 9.7 | 12.9 | 0.00 | 0.00 | 0.00 | 64 | 1018.7 |
| 20260905053324 | 13 | 314 | 14.5 | 16.1 | 0.00 | 0.00 | 0.00 | 64 | 1018.7 |
| 20260905052824 | 13 | 312 | 22.5 | 25.7 | 0.00 | 0.00 | 0.00 | 64 | 1018.5 |
| 20260905051324 | 13 | 322 | 22.5 | 25.7 | 0.00 | 0.00 | 0.00 | 65 | 1018.1 |
| 20260905050824 | 13 | 324 | 16.1 | 19.3 | 0.00 | 0.00 | 0.00 | 65 | 1018.0 |
| 20260905050324 | 13 | 309 | 11.3 | 12.9 | 0.00 | 0.00 | 0.00 | 64 | 1017.9 |
| 20260905045824 | 13 | 304 | 11.3 | 14.5 | 0.00 | 0.00 | 0.00 | 64 | 1017.8 |
| 20260905044824 | 13 | 290 | 8.0 | 9.7 | 0.00 | 0.00 | 0.00 | 63 | 1017.9 |
| 20260905043824 | 14 | 312 | 11.3 | 12.9 | 0.00 | 0.00 | 0.00 | 63 | 1017.7 |
| 20260905043324 | 14 | 311 | 11.3 | 12.9 | 0.00 | 0.00 | 0.00 | 63 | 1017.7 |
| 20260905042824 | 14 | 301 | 11.3 | 14.5 | 0.00 | 0.00 | 0.00 | 63 | 1017.7 |
| 20260905041825 | 14 | 305 | 11.3 | 12.9 | 0.00 | 0.00 | 0.00 | 63 | 1017.3 |
| 20260905041324 | 14 | 303 | 12.9 | 14.5 | 0.00 | 0.00 | 0.00 | 64 | 1017.2 |
| 20260905040324 | 14 | 296 | 11.3 | 11.3 | 0.00 | 0.00 | 0.00 | 63 | 1017.0 |
| 20260905035824 | 15 | 320 | 9.7 | 14.5 | 0.00 | 0.00 | 0.00 | 63 | 1016.8 |
| 20260905034824 | 15 | 315 | 12.9 | 14.5 | 0.00 | 0.00 | 0.00 | 63 | 1016.9 |
| 20260905034324 | 15 | 325 | 12.9 | 16.1 | 0.00 | 0.00 | 0.00 | 64 | 1016.5 |
| 20260905033824 | 15 | 350 | 11.3 | 16.1 | 0.00 | 0.00 | 0.00 | 63 | 1017.0 |
| 20260905032824 | 15 | 337 | 16.1 | 17.7 | 0.00 | 0.00 | 0.00 | 63 | 1016.4 |
| 20260905032324 | 15 | 332 | 12.9 | 17.7 | 0.00 | 0.00 | 0.00 | 63 | 1016.4 |
| 20260905031324 | 15 | 344 | 14.5 | 20.9 | 0.00 | 0.00 | 0.00 | 62 | 1016.2 |
| 20260905030824 | 16 | 290 | 24.1 | 27.4 | 0.00 | 0.00 | 0.00 | 62 | 1016.4 |
| 20260905030324 | 16 | 335 | 19.3 | 24.1 | 0.00 | 0.00 | 0.00 | 62 | 1016.6 |
| 20260905025824 | 16 | 323 | 19.3 | 22.5 | 0.00 | 0.00 | 0.00 | 61 | 1016.7 |
| 20260905025324 | 16 | 341 | 17.7 | 20.9 | 0.00 | 0.00 | 0.00 | 60 | 1016.3 |
| 20260905024824 | 16 | 332 | 19.3 | 20.9 | 0.00 | 0.00 | 0.00 | 58 | 1016.1 |
| 20260905024325 | 16 | 339 | 12.9 | 16.1 | 0.00 | 0.00 | 0.00 | 54 | 1015.8 |
| 20260905023824 | 17 | 336 | 11.3 | 14.5 | 0.00 | 0.00 | 0.00 | 53 | 1015.6 |
| 20260905021825 | 17 | 348 | 19.3 | 22.5 | 0.00 | 0.00 | 0.00 | 52 | 1015.6 |
| 20260905021324 | 17 | 339 | 14.5 | 17.7 | 0.00 | 0.00 | 0.00 | 51 | 1015.8 |
| 20260905015325 | 17 | 345 | 14.5 | 19.3 | 0.00 | 0.00 | 0.00 | 50 | 1015.2 |
| 20260905014824 | 17 | 341 | 19.3 | 20.9 | 0.00 | 0.00 | 0.00 | 50 | 1015.2 |
| 20260905014324 | 17 | 347 | 22.5 | 24.1 | 0.00 | 0.00 | 0.00 | 50 | 1015.2 |
| 20260905013824 | 17 | 345 | 16.1 | 27.4 | 0.00 | 0.00 | 0.00 | 50 | 1015.3 |
| 20260905012824 | 18 | 348 | 16.1 | 20.9 | 0.00 | 0.00 | 0.00 | 48 | 1015.1 |
| 20260905011324 | 18 | 287 | 14.5 | 17.7 | 0.00 | 0.00 | 0.00 | 48 | 1015.3 |
| 20260905010824 | 18 | 349 | 22.5 | 27.4 | 0.00 | 0.00 | 0.00 | 49 | 1015.3 |
| 20260905010324 | 18 | 346 | 19.3 | 22.5 | 0.00 | 0.00 | 0.00 | 49 | 1015.2 |
| 20260905005823 | 18 | 183 | 22.5 | 27.4 | 0.00 | 0.00 | 0.00 | 49 | 1015.0 |
| 20260905005323 | 18 | 234 | 24.1 | 27.4 | 0.00 | 0.00 | 0.00 | 50 | 1015.0 |
| 20260905004823 | 18 | 180 | 17.7 | 29.0 | 0.00 | 0.00 | 0.00 | 50 | 1014.9 |
| 20260905004323 | 18 | 66 | 24.1 | 32.2 | 0.00 | 0.00 | 0.00 | 50 | 1014.8 |
| 20260905003823 | 20 | 71 | 22.5 | 25.7 | 0.00 | 0.00 | 0.00 | 49 | 1014.5 |
| 20260905003323 | 20 | 183 | 20.9 | 27.4 | 0.00 | 0.00 | 0.00 | 47 | 1014.1 |
| 20260905002823 | 22 | 124 | 24.1 | 29.0 | 0.00 | 0.00 | 0.00 | 45 | 1014.0 |
| 20260905002323 | 22 | 71 | 32.2 | 35.4 | 0.00 | 0.00 | 0.00 | 44 | 1013.6 |
| 20260905001324 | 23 | 302 | 11.3 | 14.5 | 0.00 | 0.00 | 0.00 | 39 | 1012.9 |
| 20260904235823 | 22 | 277 | 9.7 | 11.3 | 0.00 | 0.00 | 0.00 | 39 | 1012.5 |
| 20260904235323 | 22 | 272 | 11.3 | 12.9 | 0.00 | 0.00 | 0.00 | 39 | 1012.5 |
| 20260904234823 | 22 | 264 | 12.9 | 16.1 | 0.00 | 0.00 | 0.00 | 39 | 1012.4 |
| 20260904234323 | 22 | 264 | 11.3 | 14.5 | 0.00 | 0.00 | 0.00 | 39 | 1012.4 |
| 20260904233823 | 22 | 252 | 14.5 | 16.1 | 0.00 | 0.00 | 0.00 | 39 | 1012.5 |
| 20260904233323 | 22 | 256 | 9.7 | 14.5 | 0.00 | 0.00 | 0.00 | 39 | 1012.5 |
| 20260904232823 | 22 | 247 | 9.7 | 11.3 | 0.00 | 0.00 | 0.00 | 39 | 1012.4 |
| 20260904232323 | 22 | 237 | 9.7 | 9.7 | 0.00 | 0.00 | 0.00 | 39 | 1012.5 |
| 20260904231323 | 22 | 269 | 4.8 | 8.0 | 0.00 | 0.00 | 0.00 | 39 | 1012.4 |
| 20260904230823 | 23 | 268 | 6.4 | 8.0 | 0.00 | 0.00 | 0.00 | 38 | 1012.3 |
| 20260904230323 | 23 | 269 | 6.4 | 8.0 | 0.00 | 0.00 | 0.00 | 38 | 1012.3 |
| 20260904225823 | 23 | 269 | 4.8 | 6.4 | 0.00 | 0.00 | 0.00 | 38 | 1012.2 |
| 20260904225323 | 23 | 269 | 6.4 | 6.4 | 0.00 | 0.00 | 0.00 | 38 | 1012.3 |
| 20260904224823 | 23 | 269 | 8.0 | 8.0 | 0.00 | 0.00 | 0.00 | 38 | 1012.3 |
| 20260904224323 | 23 | 269 | 3.2 | 8.0 | 0.00 | 0.00 | 0.00 | 38 | 1012.3 |
| 20260904223823 | 22 | 269 | 4.8 | 8.0 | 0.00 | 0.00 | 0.00 | 38 | 1012.3 |
| 20260904223324 | 22 | 269 | 9.7 | 11.3 | 0.00 | 0.00 | 0.00 | 39 | 1012.3 |
| 20260904222823 | 22 | 252 | 6.4 | 8.0 | 0.00 | 0.00 | 0.00 | 38 | 1012.3 |
| 20260904222323 | 22 | 252 | 9.7 | 14.5 | 0.00 | 0.00 | 0.00 | 39 | 1012.3 |
| 20260904221323 | 22 | 252 | 8.0 | 11.3 | 0.00 | 0.00 | 0.00 | 39 | 1012.3 |
| 20260904220823 | 22 | 251 | 6.4 | 6.4 | 0.00 | 0.00 | 0.00 | 39 | 1012.2 |
| 20260904220323 | 22 | 210 | 6.4 | 9.7 | 0.00 | 0.00 | 0.00 | 40 | 1012.2 |
| 20260904215823 | 21 | 209 | 6.4 | 8.0 | 0.00 | 0.00 | 0.00 | 40 | 1012.2 |
| 20260904214823 | 21 | 209 | 6.4 | 6.4 | 0.00 | 0.00 | 0.00 | 40 | 1012.3 |
| 20260904214323 | 21 | 208 | 3.2 | 4.8 | 0.00 | 0.00 | 0.00 | 40 | 1012.3 |
| 20260904213823 | 20 | 208 | 1.6 | 3.2 | 0.00 | 0.00 | 0.00 | 40 | 1012.3 |
| 20260904212323 | 20 | 208 | 3.2 | 4.8 | 0.00 | 0.00 | 0.00 | 40 | 1012.3 |
| 20260904211823 | 21 | 208 | 4.8 | 4.8 | 0.00 | 0.00 | 0.00 | 41 | 1012.3 |
| 20260904210824 | 21 | 208 | 6.4 | 6.4 | 0.00 | 0.00 | 0.00 | 40 | 1012.3 |
| 20260904210324 | 21 | 208 | 6.4 | 8.0 | 0.00 | 0.00 | 0.00 | 40 | 1012.3 |
| 20260904205323 | 21 | 208 | 8.0 | 9.7 | 0.00 | 0.00 | 0.00 | 40 | 1012.3 |
| 20260904204823 | 21 | 208 | 8.0 | 9.7 | 0.00 | 0.00 | 0.00 | 40 | 1012.3 |
| 20260904204323 | 21 | 210 | 9.7 | 11.3 | 0.00 | 0.00 | 0.00 | 40 | 1012.3 |
| 20260904203823 | 22 | 213 | 9.7 | 9.7 | 0.00 | 0.00 | 0.00 | 40 | 1012.3 |
| 20260904203323 | 22 | 215 | 6.4 | 6.4 | 0.00 | 0.00 | 0.00 | 39 | 1012.3 |
| 20260904202323 | 22 | 216 | 9.7 | 9.7 | 0.00 | 0.00 | 0.00 | 39 | 1012.3 |
| 20260904201823 | 22 | 219 | 9.7 | 11.3 | 0.00 | 0.00 | 0.00 | 39 | 1012.4 |
| 20260904200823 | 22 | 225 | 8.0 | 9.7 | 0.00 | 0.00 | 0.00 | 39 | 1012.4 |
| 20260904200323 | 22 | 226 | 9.7 | 9.7 | 0.00 | 0.00 | 0.00 | 38 | 1012.5 |
| 20260904195823 | 22 | 227 | 9.7 | 9.7 | 0.00 | 0.00 | 0.00 | 38 | 1012.6 |
| 20260904195323 | 22 | 231 | 9.7 | 9.7 | 0.00 | 0.00 | 0.00 | 38 | 1012.7 |